Time;durP1;ratioP1;P1;durP2;ratioP2;P2;SDS_P1;SDS_P2;PMS_P1;PMS_P2;Temp;Humidity;BMP_temperature;BMP_pressure;BME280_temperature;BME280_humidity;BME280_pressure;Samples;Min_cycle;Max_cycle;Signal;HPM_P1;HPM_P2
2019/05/17 11:46:12;;;;;;;11.7;10.6;;;;;;;21.46;45.45117;949.7848;;;;
2019/05/17 11:48:39;;;;;;;12.5;11.3;;;;;;;21.68;46.51563;949.7049;;;;
2019/05/17 11:51:06;;;;;;;10.6;9.7;;;;;;;23.01;41.72754;949.7364;;;;
2019/05/17 11:53:32;;;;;;;11.5;10.4;;;;;;;22.13;41.07617;949.7508;;;;
2019/05/17 11:55:57;;;;;;;11.3;10.3;;;;;;;21.55;42.11133;949.6354;;;;
2019/05/17 11:58:22;;;;;;;11.4;10.3;;;;;;;21.74;40.73242;949.678;;;;
2019/05/17 12:00:47;;;;;;;11;10.1;;;;;;;21.52;42.0498;949.6876;;;;
2019/05/17 12:03:18;;;;;;;10.9;9.8;;;;;;;22.15;40.03516;949.6661;;;;
2019/05/17 12:05:43;;;;;;;10.5;9.6;;;;;;;21.99;42.2002;949.6353;;;;
2019/05/17 12:08:15;;;;;;;9.4;8.5;;;;;;;22.98;38.63867;949.6062;;;;
2019/05/17 12:10:39;;;;;;;10;9.1;;;;;;;22.57;37.62988;949.6635;;;;
2019/05/17 12:13:03;;;;;;;9.9;9;;;;;;;23;37.5;949.5943;;;;
2019/05/17 12:15:29;;;;;;;9.2;8.4;;;;;;;23.71;37.5127;949.532;;;;
2019/05/17 12:17:55;;;;;;;9.6;8.6;;;;;;;22.62;37.81152;949.5161;;;;
2019/05/17 12:20:24;;;;;;;8.7;7.9;;;;;;;23.1;38.88574;949.4556;;;;
2019/05/17 12:22:50;;;;;;;9.2;8.4;;;;;;;23.84;37.53516;949.4347;;;;
2019/05/17 12:25:16;;;;;;;8.5;7.7;;;;;;;22.39;37.53223;949.4197;;;;
2019/05/17 12:27:45;;;;;;;9.9;9;;;;;;;22.6;37.8584;949.4536;;;;
2019/05/17 12:30:12;;;;;;;8;7.3;;;;;;;23.71;37.95215;949.4014;;;;
2019/05/17 12:32:35;;;;;;;8.3;7.6;;;;;;;23.66;36.29492;949.3755;;;;
2019/05/17 12:35:03;;;;;;;7.3;6.7;;;;;;;24.34;38.18457;949.3948;;;;
2019/05/17 12:37:28;;;;;;;6.9;6.3;;;;;;;23.75;36.45801;949.3333;;;;
2019/05/17 12:39:54;;;;;;;6.6;5.9;;;;;;;23.61;35.61426;949.3494;;;;
2019/05/17 12:42:18;;;;;;;7.9;7.1;;;;;;;23.94;37.48438;949.4185;;;;
2019/05/17 12:44:44;;;;;;;10;9;;;;;;;23.09;38.3623;949.3134;;;;
2019/05/17 12:47:08;;;;;;;10.4;9.4;;;;;;;23.26;38.09277;949.2581;;;;
2019/05/17 12:49:34;;;;;;;7.1;6.6;;;;;;;24.72;34.76172;949.3304;;;;
2019/05/17 12:51:58;;;;;;;7.1;6.5;;;;;;;24.36;36.90039;949.2692;;;;
2019/05/17 12:54:23;;;;;;;6.6;5.7;;;;;;;24.68;32.66113;949.3426;;;;
2019/05/17 12:56:49;;;;;;;8.4;7.5;;;;;;;24.15;35.0625;949.2106;;;;
2019/05/17 12:59:18;;;;;;;7.5;6.7;;;;;;;25.97;31.05859;949.213;;;;
2019/05/17 13:01:45;;;;;;;7.6;7;;;;;;;24.38;38.39063;949.226;;;;
2019/05/17 13:04:09;;;;;;;7.9;7.3;;;;;;;24.52;35.74609;949.2836;;;;
2019/05/17 13:06:34;;;;;;;6.9;6.3;;;;;;;24.74;34.83496;949.2698;;;;
2019/05/17 13:08:59;;;;;;;7.3;6.6;;;;;;;23.68;36;949.1677;;;;
2019/05/17 13:11:24;;;;;;;7.2;6.5;;;;;;;23.01;36.21875;949.1922;;;;
2019/05/17 13:13:50;;;;;;;7.6;6.8;;;;;;;23.02;37.52539;949.2039;;;;
2019/05/17 13:16:16;;;;;;;7.6;6.9;;;;;;;23.68;36.19043;949.2552;;;;
2019/05/17 13:18:42;;;;;;;7.9;7.1;;;;;;;24.2;35.87598;949.2101;;;;
2019/05/17 13:21:09;;;;;;;7.4;6.7;;;;;;;23.87;36.46777;949.155;;;;
2019/05/17 13:23:34;;;;;;;7.3;6.7;;;;;;;22.96;36.67773;949.1586;;;;
2019/05/17 13:26:01;;;;;;;6.7;6.1;;;;;;;23.43;36.4541;949.1205;;;;
2019/05/17 13:28:24;;;;;;;8;6.8;;;;;;;22.36;38.00391;949.1905;;;;
2019/05/17 13:30:49;;;;;;;6.9;6.2;;;;;;;22.43;40.03711;949.1525;;;;
2019/05/17 13:33:14;;;;;;;6;5.2;;;;;;;23.17;39.66406;949.1475;;;;
2019/05/17 13:35:39;;;;;;;6.4;5.8;;;;;;;22.53;36.8916;949.0744;;;;
2019/05/17 13:38:05;;;;;;;5.6;5.1;;;;;;;22.79;37.06738;949.0698;;;;
2019/05/17 13:40:33;;;;;;;7.7;7;;;;;;;23.05;36.79297;949.0069;;;;
2019/05/17 13:42:58;;;;;;;7.7;7;;;;;;;22.74;36.84863;949.1;;;;
2019/05/17 13:45:24;;;;;;;8.6;7.8;;;;;;;23.63;36.6377;949.1415;;;;
2019/05/17 13:47:48;;;;;;;8.6;7.8;;;;;;;24.43;36.83496;949.1039;;;;
2019/05/17 13:50:13;;;;;;;8.1;7.4;;;;;;;23.44;35.71973;949.0171;;;;
2019/05/17 13:52:39;;;;;;;7.9;7.1;;;;;;;23.06;39.57129;948.9572;;;;
2019/05/17 13:55:04;;;;;;;6.8;6.1;;;;;;;23.49;38.9209;948.9515;;;;
2019/05/17 13:57:29;;;;;;;6.5;6;;;;;;;22.43;39.8584;948.9322;;;;
2019/05/17 14:00:10;;;;;;;7.3;5.9;;;;;;;22.8;39.64355;948.9631;;;;
2019/05/17 14:02:34;;;;;;;6.2;5.6;;;;;;;22.64;39.59375;948.9163;;;;
2019/05/17 14:04:59;;;;;;;6.7;6;;;;;;;23.1;37.30664;948.8292;;;;
2019/05/17 14:07:30;;;;;;;7.7;6.1;;;;;;;24.4;33.54492;948.8311;;;;
2019/05/17 14:09:54;;;;;;;5.4;5;;;;;;;24.79;35.04102;948.8128;;;;
2019/05/17 14:12:19;;;;;;;7.9;5.9;;;;;;;24.68;35.41406;948.8638;;;;
2019/05/17 14:14:44;;;;;;;6.4;5.1;;;;;;;24.81;33.91016;948.8664;;;;
2019/05/17 14:17:11;;;;;;;6.1;5.5;;;;;;;24.65;35.49512;948.8639;;;;
2019/05/17 14:19:41;;;;;;;6.4;5.8;;;;;;;22.57;37.13086;948.8212;;;;
2019/05/17 14:22:05;;;;;;;7.7;5.3;;;;;;;23.81;36.75977;948.8273;;;;
2019/05/17 14:24:30;;;;;;;6.1;5.2;;;;;;;23.32;36.24414;948.8074;;;;
2019/05/17 14:26:55;;;;;;;5.3;4.9;;;;;;;22.88;34.71387;948.8139;;;;
2019/05/17 14:29:21;;;;;;;7;5.5;;;;;;;24.46;35.19336;948.8723;;;;
2019/05/17 14:31:48;;;;;;;6.8;5.3;;;;;;;24.16;34.9082;948.7986;;;;
2019/05/17 14:34:32;;;;;;;5.8;5.1;;;;;;;25.89;33.22754;948.8415;;;;
2019/05/17 14:37:00;;;;;;;5.2;4;;;;;;;26.63;31.43945;948.8261;;;;
2019/05/17 14:39:25;;;;;;;5.2;4.8;;;;;;;24.61;33.39551;948.8357;;;;
2019/05/17 14:41:54;;;;;;;4.4;3.8;;;;;;;25.33;32.16016;948.8674;;;;
2019/05/17 14:44:19;;;;;;;4.8;4;;;;;;;25.06;31.50879;948.8899;;;;
2019/05/17 14:46:48;;;;;;;4.7;4.3;;;;;;;24.17;33.98047;948.8233;;;;
2019/05/17 14:49:13;;;;;;;5.3;4.7;;;;;;;22.43;34.76074;948.8058;;;;
2019/05/17 14:51:39;;;;;;;5;4.5;;;;;;;22.04;35.47656;948.8016;;;;
2019/05/17 14:54:05;;;;;;;4.8;4;;;;;;;22.98;35.48047;948.7724;;;;
2019/05/17 14:56:31;;;;;;;4;3.7;;;;;;;24.12;32.75098;948.7675;;;;
2019/05/17 14:58:57;;;;;;;5.1;3.5;;;;;;;23.57;33.24609;948.8428;;;;
2019/05/17 15:01:24;;;;;;;3.3;3;;;;;;;25.03;30.68262;948.8862;;;;
2019/05/17 15:03:49;;;;;;;4.7;3.7;;;;;;;23.96;32.69141;948.8356;;;;
2019/05/17 15:06:14;;;;;;;5.7;3.4;;;;;;;22.67;34.05566;948.8681;;;;
2019/05/17 15:08:41;;;;;;;4;3.6;;;;;;;23.02;33.57227;948.7693;;;;
2019/05/17 15:11:06;;;;;;;4.9;3.6;;;;;;;23.53;34.37207;948.8312;;;;
2019/05/17 15:13:31;;;;;;;4.2;3.6;;;;;;;22.94;33.93457;948.736;;;;
2019/05/17 15:15:56;;;;;;;3.2;2.9;;;;;;;23.17;34.64063;948.8342;;;;
2019/05/17 15:18:27;;;;;;;3.6;3.3;;;;;;;23.41;35.21777;948.8657;;;;
2019/05/17 15:20:51;;;;;;;4;3.6;;;;;;;23.1;34.84863;948.7378;;;;
2019/05/17 15:23:16;;;;;;;3.9;3.2;;;;;;;24.13;34.19141;948.7442;;;;
2019/05/17 15:25:41;;;;;;;3.4;3.1;;;;;;;24.44;33.16699;948.8109;;;;
2019/05/17 15:28:07;;;;;;;4.8;3.5;;;;;;;23.96;32.8584;948.7688;;;;
2019/05/17 15:30:32;;;;;;;3.8;2.9;;;;;;;24.66;32.99316;948.7173;;;;
2019/05/17 15:32:58;;;;;;;3.8;3.3;;;;;;;24.71;31.55469;948.7444;;;;
2019/05/17 15:35:25;;;;;;;3.1;2.8;;;;;;;24.79;31.48926;948.7304;;;;
2019/05/17 15:37:49;;;;;;;6.3;3.5;;;;;;;23.62;33.26074;948.6688;;;;
2019/05/17 15:40:14;;;;;;;3.5;3.2;;;;;;;24.62;31.96582;948.625;;;;
2019/05/17 15:42:39;;;;;;;4.4;2.9;;;;;;;24.98;31.02539;948.6682;;;;
2019/05/17 15:45:11;;;;;;;3;2.7;;;;;;;26.11;30.41016;948.6666;;;;
2019/05/17 15:47:37;;;;;;;3.3;2.9;;;;;;;24.64;32.4082;948.5945;;;;
2019/05/17 15:50:06;;;;;;;2.9;2.7;;;;;;;23.01;34.95996;948.5189;;;;
2019/05/17 15:52:30;;;;;;;3;2.8;;;;;;;22.7;35.4707;948.5105;;;;
2019/05/17 15:55:03;;;;;;;2.9;2.6;;;;;;;23.05;34.12109;948.4718;;;;
2019/05/17 15:57:27;;;;;;;2.4;2.2;;;;;;;22.32;35.91406;948.4892;;;;
2019/05/17 15:59:52;;;;;;;4.9;2.8;;;;;;;22.43;35.36523;948.4355;;;;
2019/05/17 16:02:19;;;;;;;3.8;2.8;;;;;;;21.85;37.20215;948.4133;;;;
2019/05/17 16:04:44;;;;;;;3;2.3;;;;;;;21.57;38.16113;948.4261;;;;
2019/05/17 16:07:11;;;;;;;3.2;2.3;;;;;;;21.72;36.91797;948.3833;;;;
2019/05/17 16:09:36;;;;;;;3.7;2.6;;;;;;;21.54;37.27051;948.4221;;;;
2019/05/17 16:12:04;;;;;;;4.1;3.6;;;;;;;21.64;36.48633;948.4612;;;;
2019/05/17 16:14:30;;;;;;;4.8;3.9;;;;;;;21.94;37.12598;948.3769;;;;
2019/05/17 16:16:59;;;;;;;4.9;2.5;;;;;;;22;36.56348;948.4576;;;;
2019/05/17 16:19:24;;;;;;;3.5;2.2;;;;;;;22.41;36.22949;948.3965;;;;
2019/05/17 16:21:50;;;;;;;2.5;2.3;;;;;;;21.42;38.57324;948.3775;;;;
2019/05/17 16:24:15;;;;;;;2.6;2.4;;;;;;;21.38;37.95508;948.405;;;;
2019/05/17 16:26:42;;;;;;;2.5;2.3;;;;;;;21.73;36.9668;948.395;;;;
2019/05/17 16:29:07;;;;;;;4.1;2.4;;;;;;;21.61;37.13477;948.4146;;;;
2019/05/17 16:31:32;;;;;;;3.5;2.2;;;;;;;21.28;38.79785;948.3834;;;;
2019/05/17 16:33:57;;;;;;;2.3;2;;;;;;;21.62;36.46094;948.3389;;;;
2019/05/17 16:36:23;;;;;;;2.1;1.8;;;;;;;21.15;39.03613;948.3258;;;;
2019/05/17 16:38:48;;;;;;;2.8;1.7;;;;;;;21.05;38.35254;948.3307;;;;
2019/05/17 16:41:13;;;;;;;2.8;1.7;;;;;;;20.78;39.37988;948.3231;;;;
2019/05/17 16:43:38;;;;;;;4.1;2.1;;;;;;;20.53;39.52344;948.3334;;;;
2019/05/17 16:46:03;;;;;;;1.9;1.5;;;;;;;20.65;39.85254;948.2575;;;;
2019/05/17 16:48:28;;;;;;;2;1.8;;;;;;;20.56;39.23047;948.2336;;;;
2019/05/17 16:50:54;;;;;;;3.5;1.7;;;;;;;20.17;39.83301;948.2621;;;;
2019/05/17 16:53:18;;;;;;;2;1.6;;;;;;;20.45;39.11523;948.373;;;;
2019/05/17 16:55:46;;;;;;;2;1.6;;;;;;;20.08;39.70801;948.264;;;;
2019/05/17 16:58:11;;;;;;;4.2;1.7;;;;;;;19.89;41.31738;948.3159;;;;
2019/05/17 17:00:36;;;;;;;3.2;1.9;;;;;;;19.86;41.06641;948.378;;;;
2019/05/17 17:03:01;;;;;;;2.5;1.9;;;;;;;19.77;42.40137;948.2838;;;;
2019/05/17 17:05:26;;;;;;;3.2;2.1;;;;;;;19.81;42.45215;948.3983;;;;
2019/05/17 17:07:52;;;;;;;2.8;2.3;;;;;;;19.2;43.59375;948.3622;;;;
2019/05/17 17:10:17;;;;;;;3.7;2.1;;;;;;;19.45;44.1377;948.387;;;;
2019/05/17 17:12:44;;;;;;;3.2;2.3;;;;;;;19.25;44.15332;948.3965;;;;
2019/05/17 17:15:09;;;;;;;2.3;2.1;;;;;;;19.44;43.58203;948.4453;;;;
2019/05/17 17:17:35;;;;;;;4.9;2;;;;;;;19.51;43.74316;948.4199;;;;
2019/05/17 17:20:00;;;;;;;2.3;1.8;;;;;;;19.27;44.08398;948.437;;;;
2019/05/17 17:22:27;;;;;;;2;1.7;;;;;;;19.25;43.83496;948.3887;;;;
2019/05/17 17:24:52;;;;;;;4.4;2;;;;;;;19.24;44.5752;948.4081;;;;
2019/05/17 17:27:19;;;;;;;2.1;1.9;;;;;;;19.02;44.73047;948.3901;;;;
2019/05/17 17:29:44;;;;;;;1.9;1.8;;;;;;;19.13;44.53027;948.3162;;;;
2019/05/17 17:32:09;;;;;;;2.8;1.8;;;;;;;18.92;44.89648;948.3242;;;;
2019/05/17 17:34:34;;;;;;;2.3;2.1;;;;;;;18.89;45.06934;948.351;;;;
2019/05/17 17:37:00;;;;;;;3.3;2;;;;;;;18.75;45.96094;948.3675;;;;
2019/05/17 17:39:25;;;;;;;2.6;1.8;;;;;;;18.84;45.71094;948.3801;;;;
2019/05/17 17:41:50;;;;;;;2.5;1.8;;;;;;;18.8;45.61328;948.3524;;;;
2019/05/17 17:44:17;;;;;;;2.1;1.6;;;;;;;18.72;46.06348;948.3293;;;;
2019/05/17 17:46:42;;;;;;;2.6;1.9;;;;;;;18.58;47.21289;948.2729;;;;
2019/05/17 17:49:07;;;;;;;2.2;1.8;;;;;;;18.61;46.78027;948.3381;;;;
2019/05/17 17:51:32;;;;;;;3.9;1.6;;;;;;;18.49;47.1084;948.3222;;;;
2019/05/17 17:53:58;;;;;;;2;1.8;;;;;;;18.41;47.25195;948.3172;;;;
2019/05/17 17:56:23;;;;;;;2.5;1.8;;;;;;;18.36;47.63379;948.3386;;;;
2019/05/17 17:58:48;;;;;;;2.5;1.8;;;;;;;18.28;47.68555;948.3585;;;;
2019/05/17 18:01:14;;;;;;;4.2;1.8;;;;;;;18.16;48.64746;948.2737;;;;
2019/05/17 18:03:39;;;;;;;2.1;1.8;;;;;;;18.04;48.36328;948.2925;;;;
2019/05/17 18:06:04;;;;;;;2.4;1.8;;;;;;;18.08;48.47266;948.3215;;;;
2019/05/17 18:08:32;;;;;;;2.2;1.9;;;;;;;17.92;48.88965;948.3333;;;;
2019/05/17 18:10:58;;;;;;;1.8;1.6;;;;;;;17.92;48.45508;948.3203;;;;
2019/05/17 18:13:23;;;;;;;3.3;1.9;;;;;;;17.76;49.42383;948.3439;;;;
2019/05/17 18:15:49;;;;;;;2.5;1.9;;;;;;;17.7;49.55664;948.3708;;;;
2019/05/17 18:18:14;;;;;;;2.9;1.8;;;;;;;17.74;49.83203;948.3383;;;;
2019/05/17 18:20:39;;;;;;;3.2;2;;;;;;;17.61;49.79297;948.3758;;;;
2019/05/17 18:23:04;;;;;;;4.3;1.9;;;;;;;17.55;49.68066;948.3762;;;;
2019/05/17 18:25:30;;;;;;;3.2;1.8;;;;;;;17.4;50.26172;948.3943;;;;
2019/05/17 18:28:00;;;;;;;3.1;1.8;;;;;;;17.3;50.14551;948.4791;;;;
2019/05/17 18:30:25;;;;;;;3;1.9;;;;;;;17.14;50.49023;948.4026;;;;
2019/05/17 18:32:50;;;;;;;2.8;2;;;;;;;17.07;51.2666;948.4736;;;;
2019/05/17 18:35:17;;;;;;;3.2;2;;;;;;;16.98;51.09277;948.4913;;;;
2019/05/17 18:37:42;;;;;;;2.7;2;;;;;;;16.95;50.85352;948.5356;;;;
2019/05/17 18:40:10;;;;;;;2.1;1.9;;;;;;;16.87;52.33301;948.4647;;;;
2019/05/17 18:42:35;;;;;;;2.3;1.8;;;;;;;16.82;51.28418;948.4944;;;;
2019/05/17 18:45:02;;;;;;;2.3;2;;;;;;;16.82;51.60156;948.5283;;;;
2019/05/17 18:47:27;;;;;;;3.3;2.1;;;;;;;16.75;51.82617;948.5266;;;;
2019/05/17 18:49:52;;;;;;;2.6;2;;;;;;;16.67;51.54785;948.5764;;;;
2019/05/17 18:52:17;;;;;;;3.8;2.1;;;;;;;16.66;51.76953;948.5517;;;;
2019/05/17 18:54:44;;;;;;;2.6;2.1;;;;;;;16.54;51.7666;948.5349;;;;
2019/05/17 18:57:09;;;;;;;2.9;2.1;;;;;;;16.51;51.45898;948.5444;;;;
2019/05/17 18:59:34;;;;;;;3.9;2.1;;;;;;;16.48;51.7832;948.5569;;;;
2019/05/17 19:01:59;;;;;;;2.4;2.1;;;;;;;16.45;52.08301;948.5485;;;;
2019/05/17 19:04:24;;;;;;;2.4;2.2;;;;;;;16.36;52.27051;948.6265;;;;
2019/05/17 19:06:52;;;;;;;2.2;2;;;;;;;16.46;51.59277;948.5938;;;;
2019/05/17 19:09:17;;;;;;;5;2.2;;;;;;;16.4;51.82031;948.6714;;;;
2019/05/17 19:11:46;;;;;;;2.1;1.9;;;;;;;16.37;51.74609;948.6641;;;;
2019/05/17 19:14:11;;;;;;;2.8;2.1;;;;;;;16.25;52.17676;948.5609;;;;
2019/05/17 19:16:40;;;;;;;2.9;2.1;;;;;;;16.31;52.25293;948.6461;;;;
2019/05/17 19:19:05;;;;;;;3.7;2;;;;;;;16.23;52.5957;948.692;;;;
2019/05/17 19:21:30;;;;;;;3.3;2.1;;;;;;;16.19;52.54199;948.7078;;;;
2019/05/17 19:23:55;;;;;;;3.8;2.3;;;;;;;16.2;52.79004;948.7492;;;;
2019/05/17 19:26:20;;;;;;;2.5;2.3;;;;;;;16.05;53.19238;948.8131;;;;
2019/05/17 19:28:46;;;;;;;3.4;2.5;;;;;;;16.11;53.58594;948.7575;;;;
2019/05/17 19:31:10;;;;;;;2.8;2.5;;;;;;;16.09;53.54883;948.7947;;;;
2019/05/17 19:33:35;;;;;;;2.9;2.3;;;;;;;16.04;54.02051;948.8502;;;;
2019/05/17 19:36:00;;;;;;;2.7;2.2;;;;;;;16.06;53.52148;948.9062;;;;
2019/05/17 19:38:26;;;;;;;3.5;2.3;;;;;;;15.95;53.8916;948.8803;;;;
2019/05/17 19:40:51;;;;;;;5.1;2.4;;;;;;;15.96;54.4668;948.9425;;;;
2019/05/17 19:43:17;;;;;;;3.1;2.3;;;;;;;15.76;56.90527;948.9891;;;;
2019/05/17 19:45:59;;;;;;;4;2.5;;;;;;;15.65;58.08203;949.1038;;;;
2019/05/17 19:48:25;;;;;;;3.9;2.5;;;;;;;15.64;57.63867;949.1475;;;;
2019/05/17 19:50:50;;;;;;;2.8;2.5;;;;;;;15.86;55.07324;949.2408;;;;
2019/05/17 19:53:19;;;;;;;4.6;2.7;;;;;;;15.96;54.10449;949.2701;;;;
2019/05/17 19:55:44;;;;;;;5;3;;;;;;;15.94;54.47656;949.3547;;;;
2019/05/17 19:58:09;;;;;;;4.9;3.3;;;;;;;15.89;55.59082;949.3831;;;;
2019/05/17 20:00:34;;;;;;;4;2.9;;;;;;;15.85;56.21582;949.4105;;;;
2019/05/17 20:03:01;;;;;;;4.5;2.9;;;;;;;15.69;57.07227;949.3899;;;;
2019/05/17 20:05:26;;;;;;;3.6;2.9;;;;;;;15.67;57.55859;949.4536;;;;
2019/05/17 20:07:51;;;;;;;5.7;3;;;;;;;15.5;58.2373;949.4258;;;;
2019/05/17 20:10:16;;;;;;;4.9;2.5;;;;;;;15.38;59.18945;949.4124;;;;
2019/05/17 20:12:41;;;;;;;7.4;2.7;;;;;;;15.34;59.39551;949.5079;;;;
2019/05/17 20:15:07;;;;;;;3.8;2.4;;;;;;;15.19;59.5957;949.4394;;;;
2019/05/17 20:17:33;;;;;;;3;2.7;;;;;;;15.26;59.16211;949.5275;;;;
2019/05/17 20:19:58;;;;;;;2.4;2.2;;;;;;;15.18;59.36133;949.582;;;;
2019/05/17 20:22:28;;;;;;;2.6;2.1;;;;;;;15.18;58.89551;949.5948;;;;
2019/05/17 20:24:53;;;;;;;4;1.9;;;;;;;15.21;58.95703;949.6164;;;;
2019/05/17 20:27:18;;;;;;;5.3;2;;;;;;;14.9;60.32617;949.6384;;;;
2019/05/17 20:29:43;;;;;;;3.6;2.1;;;;;;;14.77;61.27441;949.5831;;;;
2019/05/17 20:32:10;;;;;;;2.9;2.1;;;;;;;14.74;62.91211;949.5447;;;;
2019/05/17 20:34:35;;;;;;;2.3;2.1;;;;;;;14.5;62.58789;949.5814;;;;
2019/05/17 20:37:01;;;;;;;2.6;2.2;;;;;;;14.6;62.3916;949.4955;;;;
2019/05/17 20:39:27;;;;;;;2.2;1.8;;;;;;;14.48;63.24902;949.5243;;;;
2019/05/17 20:41:52;;;;;;;3;2.1;;;;;;;14.43;63.51953;949.5105;;;;
2019/05/17 20:44:18;;;;;;;2.2;2;;;;;;;14.56;62.39941;949.5175;;;;
2019/05/17 20:46:43;;;;;;;2.5;1.8;;;;;;;14.45;62.75488;949.5331;;;;
2019/05/17 20:49:10;;;;;;;2.2;1.8;;;;;;;14.35;63.75488;949.5419;;;;
2019/05/17 20:51:47;;;;;;;2;1.8;;;;;;;14.35;63.27637;949.5508;;;;
2019/05/17 20:54:12;;;;;;;2.4;2.1;;;;;;;14.3;63.67578;949.5839;;;;
2019/05/17 20:56:37;;;;;;;2;1.8;;;;;;;14.22;63.88672;949.5853;;;;
2019/05/17 20:59:02;;;;;;;2.3;2;;;;;;;14.3;64.01367;949.6183;;;;
2019/05/17 21:01:32;;;;;;;2.3;1.9;;;;;;;14.07;65.20215;949.597;;;;
2019/05/17 21:03:57;;;;;;;2.8;2.2;;;;;;;13.95;66.68359;949.601;;;;
2019/05/17 21:06:22;;;;;;;2.2;1.9;;;;;;;14.02;65.15918;949.6648;;;;
2019/05/17 21:08:53;;;;;;;2.1;1.9;;;;;;;13.99;65.53906;949.6859;;;;
2019/05/17 21:11:24;;;;;;;2;1.8;;;;;;;13.88;65.84863;949.6616;;;;
2019/05/17 21:13:49;;;;;;;2.3;2;;;;;;;13.96;65.55859;949.6385;;;;
2019/05/17 21:16:22;;;;;;;1.7;1.6;;;;;;;14;65.35449;949.6194;;;;
2019/05/17 21:18:49;;;;;;;2.4;2;;;;;;;14.23;64.42188;949.6664;;;;
2019/05/17 21:21:14;;;;;;;1.7;1.6;;;;;;;14.05;65.47754;949.6942;;;;
2019/05/17 21:23:39;;;;;;;2.3;1.7;;;;;;;14.01;65.79785;949.8201;;;;
2019/05/17 21:26:04;;;;;;;3.2;1.9;;;;;;;13.97;67.68652;949.8046;;;;
2019/05/17 21:28:29;;;;;;;6.8;2.5;;;;;;;13.62;75.60449;949.7311;;;;
2019/05/17 21:30:56;;;;;;;5.2;2.9;;;;;;;13.09;79.44727;949.7029;;;;
2019/05/17 21:33:21;;;;;;;7.5;4.3;;;;;;;12.6;85.0498;949.6978;;;;
2019/05/17 21:35:46;;;;;;;12;6.1;;;;;;;12.49;88.75;949.6358;;;;
2019/05/17 21:38:11;;;;;;;10.1;5.4;;;;;;;12.03;91.12109;949.6561;;;;
2019/05/17 21:40:36;;;;;;;8.6;4.7;;;;;;;12.05;91.76172;949.6622;;;;
2019/05/17 21:43:01;;;;;;;7;3.6;;;;;;;12.15;88.34473;949.6316;;;;
2019/05/17 21:45:27;;;;;;;5.7;4.3;;;;;;;12.08;89.91602;949.6018;;;;
2019/05/17 21:47:55;;;;;;;5.9;4.6;;;;;;;;;;;;;
2019/05/17 21:50:20;;;;;;;6.1;4.4;;;;;;;;;;;;;
2019/05/17 21:52:45;;;;;;;6.7;4.6;;;;;;;;;;;;;
2019/05/17 21:55:10;;;;;;;8.6;5.1;;;;;;;;;;;;;
2019/05/17 21:57:35;;;;;;;7.9;5.5;;;;;;;;;;;;;
2019/05/17 22:00:00;;;;;;;8.6;6.9;;;;;;;;;;;;;
2019/05/17 22:02:25;;;;;;;6.8;5.8;;;;;;;;;;;;;
2019/05/17 22:04:50;;;;;;;5.4;4.9;;;;;;;;;;;;;
2019/05/17 22:07:18;;;;;;;5.8;4.8;;;;;;;;;;;;;
2019/05/17 22:09:42;;;;;;;6.9;5.2;;;;;;;;;;;;;
2019/05/17 22:12:09;;;;;;;5;4.5;;;;;;;;;;;;;
2019/05/17 22:14:33;;;;;;;5.8;4.7;;;;;;;;;;;;;
2019/05/17 22:16:58;;;;;;;6.1;5.6;;;;;;;;;;;;;
2019/05/17 22:19:23;;;;;;;6.8;6.1;;;;;;;;;;;;;
2019/05/17 22:21:48;;;;;;;8;7.3;;;;;;;;;;;;;
2019/05/17 22:24:14;;;;;;;6.8;6.3;;;;;;;;;;;;;
2019/05/17 22:26:40;;;;;;;6;5.5;;;;;;;;;;;;;
2019/05/17 22:29:05;;;;;;;6.9;6.3;;;;;;;;;;;;;
2019/05/17 22:31:36;;;;;;;6.9;6.2;;;;;;;;;;;;;
2019/05/17 22:34:01;;;;;;;10.9;9.9;;;;;;;;;;;;;
2019/05/17 22:36:26;;;;;;;9.3;8.5;;;;;;;;;;;;;
2019/05/17 22:38:52;;;;;;;7.1;6.5;;;;;;;;;;;;;
2019/05/17 22:41:17;;;;;;;7.6;6.9;;;;;;;;;;;;;
2019/05/17 22:43:42;;;;;;;12;11;;;;;;;;;;;;;
2019/05/17 22:46:07;;;;;;;9.1;8.2;;;;;;;;;;;;;
2019/05/17 22:48:32;;;;;;;9.7;8.9;;;;;;;;;;;;;
2019/05/17 22:50:57;;;;;;;9.8;8.9;;;;;;;;;;;;;
2019/05/17 22:53:22;;;;;;;13.2;11.9;;;;;;;;;;;;;
2019/05/17 22:55:49;;;;;;;10.8;9.8;;;;;;;;;;;;;
2019/05/17 22:58:14;;;;;;;11.9;10.7;;;;;;;;;;;;;
2019/05/17 23:00:40;;;;;;;10.9;9.8;;;;;;;;;;;;;
2019/05/17 23:03:05;;;;;;;10.6;9.7;;;;;;;;;;;;;
2019/05/17 23:05:31;;;;;;;10;9.1;;;;;;;;;;;;;
2019/05/17 23:07:55;;;;;;;9.8;9;;;;;;;;;;;;;
2019/05/17 23:10:20;;;;;;;9.8;8.9;;;;;;;;;;;;;
2019/05/17 23:12:46;;;;;;;10.3;9.4;;;;;;;;;;;;;
2019/05/17 23:15:11;;;;;;;9.9;8.9;;;;;;;;;;;;;
2019/05/17 23:17:36;;;;;;;8.4;7.6;;;;;;;;;;;;;
2019/05/17 23:20:01;;;;;;;12.4;11.3;;;;;;;;;;;;;
2019/05/17 23:22:26;;;;;;;11.8;10.8;;;;;;;;;;;;;
2019/05/17 23:24:52;;;;;;;11.6;10.6;;;;;;;;;;;;;
2019/05/17 23:27:17;;;;;;;12;11;;;;;;;;;;;;;
2019/05/17 23:29:42;;;;;;;12.7;11.6;;;;;;;;;;;;;
2019/05/17 23:32:07;;;;;;;11.2;10.2;;;;;;;;;;;;;
2019/05/17 23:34:32;;;;;;;12.1;11.1;;;;;;;;;;;;;
2019/05/17 23:36:57;;;;;;;13.4;12.3;;;;;;;;;;;;;
2019/05/17 23:39:23;;;;;;;13;11.9;;;;;;;;;;;;;
2019/05/17 23:41:48;;;;;;;13.1;11.8;;;;;;;;;;;;;
2019/05/17 23:44:14;;;;;;;12.2;11.1;;;;;;;;;;;;;
2019/05/17 23:46:40;;;;;;;12.3;11.2;;;;;;;;;;;;;
2019/05/17 23:49:05;;;;;;;10.8;9.9;;;;;;;;;;;;;
2019/05/17 23:51:30;;;;;;;13.4;12.2;;;;;;;;;;;;;
2019/05/17 23:53:55;;;;;;;24.2;21.8;;;;;;;;;;;;;
2019/05/17 23:56:20;;;;;;;23.8;21.5;;;;;;;;;;;;;
2019/05/17 23:58:45;;;;;;;16.8;15.3;;;;;;;;;;;;;
